Time;durP1;ratioP1;P1;durP2;ratioP2;P2;SDS_P1;SDS_P2;PMS_P1;PMS_P2;Temp;Humidity;BMP_temperature;BMP_pressure;BME280_temperature;BME280_humidity;BME280_pressure;Samples;Min_cycle;Max_cycle;Signal;HPM_P1;HPM_P2
2022/03/17 00:02:21;;;;;;;31.40;15.52;;;11.00;90.60;;;;;;5033230;28;20030;-61
2022/03/17 00:04:47;;;;;;;34.35;16.02;;;11.00;90.70;;;;;;5032996;28;20021;-62
2022/03/17 00:07:14;;;;;;;30.90;16.40;;;11.00;90.70;;;;;;5033142;28;20033;-62
2022/03/17 00:09:40;;;;;;;37.53;16.20;;;11.00;90.60;;;;;;5033676;28;20463;-62
2022/03/17 00:12:08;;;;;;;36.35;15.77;;;11.00;90.50;;;;;;5031432;28;20116;-62
2022/03/17 00:14:33;;;;;;;36.25;16.48;;;11.00;90.60;;;;;;5032257;28;20376;-61
2022/03/17 00:16:59;;;;;;;33.25;16.00;;;11.00;90.60;;;;;;5032866;28;20032;-61
2022/03/17 00:19:25;;;;;;;36.42;19.20;;;11.00;90.50;;;;;;5032993;28;20557;-62
2022/03/17 00:21:51;;;;;;;39.53;17.77;;;11.00;90.60;;;;;;5032373;28;20022;-62
2022/03/17 00:24:17;;;;;;;39.08;18.05;;;11.00;90.60;;;;;;5033172;28;20369;-62
2022/03/17 00:26:43;;;;;;;32.30;15.43;;;11.00;90.60;;;;;;5032593;28;20088;-61
2022/03/17 00:29:09;;;;;;;35.03;17.17;;;11.00;90.60;;;;;;5030850;28;20029;-62
2022/03/17 00:31:37;;;;;;;36.55;16.67;;;11.00;90.60;;;;;;5032714;28;20441;-62
2022/03/17 00:34:07;;;;;;;32.92;16.85;;;11.00;90.70;;;;;;5032365;28;20038;-62
2022/03/17 00:36:34;;;;;;;39.38;16.08;;;11.00;90.60;;;;;;5032432;28;20047;-62
2022/03/17 00:39:00;;;;;;;36.50;16.33;;;11.00;90.50;;;;;;5032756;28;20039;-61
2022/03/17 00:41:26;;;;;;;36.28;17.20;;;11.00;90.60;;;;;;5031846;28;20087;-62
2022/03/17 00:43:52;;;;;;;35.53;18.70;;;11.00;90.50;;;;;;5031966;28;20033;-61
2022/03/17 00:46:17;;;;;;;35.67;16.50;;;11.00;90.40;;;;;;5032599;28;20108;-62
2022/03/17 00:48:43;;;;;;;40.53;18.50;;;11.00;90.60;;;;;;5032081;28;20724;-62
2022/03/17 00:51:08;;;;;;;33.70;16.00;;;11.00;90.60;;;;;;5032146;28;20060;-61
2022/03/17 00:53:34;;;;;;;35.53;17.27;;;11.00;90.70;;;;;;5032561;28;20105;-62
2022/03/17 00:56:00;;;;;;;33.75;15.55;;;11.00;90.50;;;;;;5032504;28;20073;-62
2022/03/17 00:58:29;;;;;;;36.65;19.05;;;11.00;90.60;;;;;;5031743;28;20302;-62
2022/03/17 01:00:54;;;;;;;30.80;15.02;;;11.00;90.60;;;;;;5032298;28;20121;-62
2022/03/17 01:03:20;;;;;;;35.92;16.48;;;11.00;90.70;;;;;;5031020;28;20508;-62
2022/03/17 01:05:45;;;;;;;36.17;16.88;;;11.00;90.50;;;;;;5032420;28;20167;-61
2022/03/17 01:08:11;;;;;;;35.13;15.68;;;11.00;90.60;;;;;;5032190;28;20383;-61
2022/03/17 01:10:38;;;;;;;35.13;15.80;;;11.00;90.50;;;;;;5031851;28;20475;-62
2022/03/17 01:13:05;;;;;;;36.72;15.88;;;11.00;90.50;;;;;;5030385;28;20034;-62
2022/03/17 01:15:31;;;;;;;43.47;16.95;;;11.00;90.70;;;;;;5031828;28;20036;-62
2022/03/17 01:17:57;;;;;;;37.08;17.70;;;11.00;90.40;;;;;;5031269;28;20033;-62
2022/03/17 01:20:23;;;;;;;35.38;15.43;;;11.00;90.50;;;;;;5031461;28;20147;-62
2022/03/17 01:22:48;;;;;;;33.25;15.57;;;11.00;90.50;;;;;;5031106;28;20108;-62
2022/03/17 01:25:14;;;;;;;35.83;16.05;;;10.90;90.50;;;;;;5031724;28;20025;-61
2022/03/17 01:27:40;;;;;;;33.05;15.20;;;10.90;90.50;;;;;;5030805;28;20378;-61
2022/03/17 01:30:09;;;;;;;41.38;16.48;;;11.00;90.40;;;;;;5031264;28;20024;-62
2022/03/17 01:32:37;;;;;;;35.08;16.67;;;11.00;90.40;;;;;;5030990;28;20056;-61
2022/03/17 01:35:05;;;;;;;29.30;15.15;;;11.00;90.50;;;;;;5031842;28;20521;-61
2022/03/17 01:37:30;;;;;;;32.55;16.67;;;10.90;90.50;;;;;;5030445;28;20143;-62
2022/03/17 01:39:56;;;;;;;33.70;16.50;;;10.90;90.30;;;;;;5031657;28;20108;-62
2022/03/17 01:42:22;;;;;;;42.58;16.30;;;11.00;90.40;;;;;;5030033;28;20471;-61
2022/03/17 01:44:48;;;;;;;35.60;15.05;;;10.90;90.50;;;;;;5030725;28;20045;-62
2022/03/17 01:47:29;;;;;;;31.77;14.82;;;11.00;90.30;;;;;;5031380;28;20029;-62
2022/03/17 01:49:57;;;;;;;30.90;15.05;;;11.00;90.30;;;;;;5030997;28;20393;-62
2022/03/17 01:52:23;;;;;;;34.47;15.45;;;11.00;90.30;;;;;;5030508;28;20026;-61
2022/03/17 01:54:50;;;;;;;32.15;15.15;;;11.00;90.30;;;;;;5030860;28;20028;-62
2022/03/17 01:57:16;;;;;;;33.88;15.07;;;11.00;90.30;;;;;;5030896;28;20029;-64
2022/03/17 01:59:42;;;;;;;30.67;15.25;;;11.00;90.30;;;;;;5030631;28;20028;-62
2022/03/17 02:02:10;;;;;;;35.25;16.52;;;11.00;90.20;;;;;;5030762;28;20029;-61
2022/03/17 02:04:36;;;;;;;32.95;16.25;;;10.90;90.30;;;;;;5030719;28;20061;-61
2022/03/17 02:07:05;;;;;;;33.35;16.25;;;10.90;90.40;;;;;;5030739;28;20049;-62
2022/03/17 02:09:34;;;;;;;40.42;16.40;;;10.90;90.30;;;;;;5031233;28;20036;-62
2022/03/17 02:14:53;;;;;;;31.42;14.52;;;10.90;90.30;;;;;;5030600;28;20084;-62
2022/03/17 02:17:20;;;;;;;37.95;16.63;;;10.90;90.40;;;;;;5029387;28;20041;-62
2022/03/17 02:19:46;;;;;;;37.58;17.10;;;10.90;90.50;;;;;;5030409;28;20079;-62
2022/03/17 02:22:16;;;;;;;33.05;15.88;;;10.90;90.50;;;;;;5030628;28;20049;-62
2022/03/17 02:27:33;;;;;;;40.42;16.10;;;10.90;90.50;;;;;;5031108;28;20060;-61
2022/03/17 02:29:59;;;;;;;36.25;16.42;;;10.90;90.40;;;;;;5030430;28;20156;-62
2022/03/17 02:32:25;;;;;;;33.95;15.73;;;10.90;90.30;;;;;;5029691;28;20025;-62
2022/03/17 02:34:52;;;;;;;36.55;15.73;;;10.90;90.30;;;;;;5030416;28;20036;-61
2022/03/17 02:37:18;;;;;;;37.67;16.13;;;10.90;90.40;;;;;;5031243;28;20057;-62
2022/03/17 02:39:44;;;;;;;36.20;16.30;;;10.90;90.40;;;;;;5032621;28;20025;-62
2022/03/17 02:42:13;;;;;;;35.10;15.65;;;10.90;90.40;;;;;;5036864;28;20520;-61
2022/03/17 02:44:39;;;;;;;29.63;14.38;;;10.90;90.40;;;;;;5037511;28;20034;-62
2022/03/17 02:47:06;;;;;;;35.05;15.50;;;10.90;90.40;;;;;;5030130;28;20037;-62
2022/03/17 02:49:33;;;;;;;33.38;15.20;;;10.90;90.40;;;;;;5030426;28;20545;-62
2022/03/17 02:51:58;;;;;;;36.88;15.32;;;10.90;90.20;;;;;;5029388;28;20029;-62
2022/03/17 02:54:24;;;;;;;35.38;15.52;;;10.90;90.40;;;;;;5030124;28;20466;-62
2022/03/17 02:56:50;;;;;;;35.75;15.82;;;10.90;90.30;;;;;;5030269;28;20035;-61
2022/03/17 02:59:15;;;;;;;36.70;15.75;;;10.90;90.40;;;;;;5028559;28;20550;-64
2022/03/17 03:01:41;;;;;;;33.28;15.38;;;10.90;90.20;;;;;;5022697;28;20026;-62
2022/03/17 03:04:07;;;;;;;37.55;17.73;;;10.90;90.40;;;;;;5010409;28;20036;-61
2022/03/17 03:06:32;;;;;;;32.35;14.05;;;10.90;90.30;;;;;;5010251;28;20026;-61
2022/03/17 03:08:59;;;;;;;39.50;16.60;;;10.90;90.30;;;;;;5018957;28;20155;-61
2022/03/17 03:11:25;;;;;;;39.05;16.75;;;10.90;90.40;;;;;;5016555;28;20041;-61
2022/03/17 03:13:51;;;;;;;30.42;15.82;;;10.90;90.50;;;;;;5016145;28;20057;-62
2022/03/17 03:16:16;;;;;;;29.85;14.45;;;10.90;90.30;;;;;;5029811;28;20064;-62
2022/03/17 03:18:42;;;;;;;36.45;16.63;;;10.90;90.30;;;;;;5029739;28;20036;-62
2022/03/17 03:21:08;;;;;;;37.10;15.88;;;10.90;90.40;;;;;;5029699;28;20033;-61
2022/03/17 03:23:34;;;;;;;39.80;17.23;;;10.90;90.40;;;;;;5029201;28;20106;-62
2022/03/17 03:26:00;;;;;;;39.08;15.85;;;10.90;90.30;;;;;;5013213;28;20033;-62
2022/03/17 03:28:26;;;;;;;29.17;13.55;;;10.80;90.50;;;;;;5029118;28;20025;-62
2022/03/17 03:30:54;;;;;;;38.38;15.27;;;10.90;90.20;;;;;;5028396;28;20102;-62
2022/03/17 03:33:20;;;;;;;36.55;15.07;;;10.80;90.20;;;;;;5009128;28;20038;-62
2022/03/17 03:38:30;;;;;;;33.60;14.90;;;10.80;90.10;;;;;;5009510;28;20048;-61
2022/03/17 03:40:55;;;;;;;28.73;14.07;;;10.80;90.10;;;;;;5009078;28;20022;-62
2022/03/17 03:43:21;;;;;;;33.90;16.10;;;10.90;90.30;;;;;;5009407;28;20037;-62
2022/03/17 03:45:50;;;;;;;32.45;15.20;;;10.80;90.30;;;;;;5024415;28;20402;-61
2022/03/17 03:48:16;;;;;;;33.00;14.35;;;10.80;90.30;;;;;;5029021;28;20136;-64
2022/03/17 03:50:41;;;;;;;34.58;15.32;;;10.80;90.30;;;;;;5029300;28;20033;-61
2022/03/17 03:53:07;;;;;;;32.10;14.75;;;10.80;90.10;;;;;;5028685;28;20068;-62
2022/03/17 03:55:32;;;;;;;32.00;15.45;;;10.90;90.20;;;;;;5028683;28;20025;-62
2022/03/17 03:57:59;;;;;;;34.78;14.75;;;10.80;90.30;;;;;;5028526;28;20100;-62
2022/03/17 04:02:55;;;;;;;30.13;15.38;;;10.80;90.30;;;;;;5029005;28;20116;-62
2022/03/17 04:05:24;;;;;;;35.95;14.70;;;10.80;90.30;;;;;;5029115;28;20033;-62
2022/03/17 04:07:51;;;;;;;30.60;13.90;;;10.90;90.40;;;;;;5028502;28;20025;-62
2022/03/17 04:10:16;;;;;;;31.60;13.40;;;10.80;90.20;;;;;;5027580;28;20045;-63
2022/03/17 04:12:42;;;;;;;28.92;14.43;;;10.80;90.20;;;;;;5028651;28;20087;-62
2022/03/17 04:15:08;;;;;;;36.72;15.55;;;10.80;90.20;;;;;;5028094;28;20104;-62
2022/03/17 04:17:34;;;;;;;36.08;15.18;;;10.80;90.10;;;;;;5028979;28;20033;-61
2022/03/17 04:19:59;;;;;;;37.53;16.02;;;10.80;90.20;;;;;;5028773;28;20021;-61
2022/03/17 04:22:25;;;;;;;30.55;14.68;;;10.80;90.10;;;;;;5028598;28;20101;-61
2022/03/17 04:24:50;;;;;;;38.60;15.48;;;10.80;90.20;;;;;;5028488;28;20071;-62
2022/03/17 04:27:16;;;;;;;27.90;14.20;;;10.80;90.20;;;;;;5028449;28;20478;-62
2022/03/17 04:29:42;;;;;;;28.95;13.40;;;10.80;90.10;;;;;;5028162;28;20033;-61
2022/03/17 04:32:07;;;;;;;38.88;14.98;;;10.80;90.20;;;;;;5028189;28;20384;-61
2022/03/17 04:34:33;;;;;;;40.13;15.80;;;10.80;90.20;;;;;;5028885;28;20126;-62
2022/03/17 04:36:59;;;;;;;31.83;15.15;;;10.80;90.00;;;;;;5031624;28;20063;-62
2022/03/17 04:39:24;;;;;;;34.50;14.65;;;10.80;90.20;;;;;;5031717;28;20026;-62
2022/03/17 04:41:50;;;;;;;25.75;12.70;;;10.80;90.20;;;;;;5031279;28;20110;-61
2022/03/17 04:44:16;;;;;;;30.17;14.65;;;10.80;90.20;;;;;;5031878;28;20064;-62
2022/03/17 04:46:41;;;;;;;33.92;14.43;;;10.80;90.10;;;;;;5031445;28;20402;-61
2022/03/17 04:49:09;;;;;;;31.10;15.13;;;10.80;90.20;;;;;;5032538;28;20029;-62
2022/03/17 04:51:36;;;;;;;42.55;15.70;;;10.80;90.20;;;;;;5030368;28;20132;-63
2022/03/17 04:54:02;;;;;;;35.17;14.48;;;10.80;90.10;;;;;;5014061;28;20410;-63
2022/03/17 04:56:28;;;;;;;30.58;13.07;;;10.80;90.20;;;;;;5032458;28;20025;-63
2022/03/17 04:58:54;;;;;;;31.65;15.07;;;10.80;90.10;;;;;;5032073;28;20551;-63
2022/03/17 05:01:19;;;;;;;37.75;15.07;;;10.80;90.10;;;;;;5030549;28;20087;-63
2022/03/17 05:03:45;;;;;;;34.00;13.75;;;10.80;90.20;;;;;;5032213;28;20021;-63
2022/03/17 05:06:13;;;;;;;27.73;13.10;;;10.80;90.00;;;;;;5032180;28;20022;-63
2022/03/17 05:08:39;;;;;;;32.58;15.30;;;10.80;90.00;;;;;;5029855;28;20057;-63
2022/03/17 05:11:07;;;;;;;34.70;14.88;;;10.80;90.00;;;;;;5032092;28;20037;-63
2022/03/17 05:13:33;;;;;;;36.78;14.15;;;10.80;89.90;;;;;;5031894;28;20022;-63
2022/03/17 05:15:59;;;;;;;35.88;15.65;;;10.80;90.00;;;;;;5031626;28;20083;-63
2022/03/17 05:18:26;;;;;;;30.35;14.93;;;10.80;90.00;;;;;;5030977;28;20025;-63
2022/03/17 05:20:52;;;;;;;34.22;15.98;;;10.90;90.00;;;;;;5032045;28;20022;-62
2022/03/17 05:23:18;;;;;;;35.40;15.00;;;10.90;90.00;;;;;;5031138;28;20136;-61
2022/03/17 05:25:47;;;;;;;29.55;13.68;;;10.90;90.00;;;;;;5031600;28;20025;-61
2022/03/17 05:28:13;;;;;;;28.83;12.98;;;10.80;90.00;;;;;;5031586;28;20124;-61
2022/03/17 05:30:40;;;;;;;33.80;14.77;;;10.80;89.90;;;;;;5030794;28;20545;-61
2022/03/17 05:33:07;;;;;;;34.42;16.02;;;10.80;90.00;;;;;;5029730;28;20048;-61
2022/03/17 05:35:33;;;;;;;35.55;15.60;;;10.80;89.90;;;;;;5031026;28;20018;-62
2022/03/17 05:38:00;;;;;;;40.47;15.32;;;10.80;89.80;;;;;;5031212;28;20014;-61
2022/03/17 05:40:27;;;;;;;38.33;16.67;;;10.80;90.30;;;;;;5031664;28;20032;-61
2022/03/17 05:42:54;;;;;;;36.90;15.32;;;10.80;89.70;;;;;;5030759;28;20029;-61
2022/03/17 05:48:31;;;;;;;33.95;14.77;;;10.90;89.70;;;;;;5114753;22;20169;-59
2022/03/17 05:50:57;;;;;;;38.70;15.75;;;10.90;89.90;;;;;;5081946;28;20032;-59
2022/03/17 05:53:23;;;;;;;34.25;14.48;;;10.90;89.70;;;;;;5079849;28;20465;-60
2022/03/17 05:55:48;;;;;;;30.48;13.73;;;10.90;89.60;;;;;;5086957;28;20485;-61
2022/03/17 05:58:14;;;;;;;29.52;14.18;;;10.90;89.70;;;;;;5081790;28;20154;-60
2022/03/17 06:00:39;;;;;;;29.55;13.55;;;10.80;89.40;;;;;;5079767;28;20029;-60
2022/03/17 06:03:05;;;;;;;37.00;16.80;;;10.80;89.50;;;;;;5077394;28;20134;-60
2022/03/17 06:05:31;;;;;;;31.27;14.27;;;10.90;89.50;;;;;;5078747;28;20051;-60
2022/03/17 06:08:00;;;;;;;35.13;15.75;;;10.90;89.30;;;;;;5078892;28;20058;-60
2022/03/17 06:10:32;;;;;;;34.35;14.85;;;10.90;89.30;;;;;;5078983;28;20047;-60
2022/03/17 06:13:00;;;;;;;36.20;15.15;;;10.90;89.40;;;;;;5078660;28;20069;-61
2022/03/17 06:15:26;;;;;;;37.83;15.00;;;10.90;89.30;;;;;;5082575;28;20032;-60
2022/03/17 06:17:54;;;;;;;39.17;16.30;;;10.90;89.30;;;;;;5083755;28;20528;-60
2022/03/17 06:20:22;;;;;;;36.35;16.13;;;10.90;89.20;;;;;;5076255;28;20028;-60
2022/03/17 06:22:50;;;;;;;31.33;13.15;;;10.90;89.20;;;;;;5084378;28;20111;-60
2022/03/17 06:25:18;;;;;;;29.23;15.07;;;10.90;89.30;;;;;;5081122;28;20035;-61
2022/03/17 06:27:47;;;;;;;57.15;15.68;;;10.90;89.30;;;;;;5064085;28;20396;-60
2022/03/17 06:30:19;;;;;;;35.38;16.67;;;10.90;89.30;;;;;;5079742;28;20471;-60
2022/03/17 06:32:45;;;;;;;30.05;16.23;;;10.90;89.30;;;;;;5083922;28;20028;-60
2022/03/17 06:35:22;;;;;;;41.22;16.00;;;10.90;89.30;;;;;;5089557;28;20073;-61
2022/03/17 06:37:53;;;;;;;35.72;15.98;;;10.90;89.20;;;;;;5088584;28;20035;-60
2022/03/17 06:40:20;;;;;;;40.03;17.05;;;10.90;89.10;;;;;;5082427;28;20125;-61
2022/03/17 06:42:47;;;;;;;36.63;16.10;;;10.90;89.20;;;;;;5080251;28;20087;-60
2022/03/17 06:45:12;;;;;;;39.60;15.82;;;10.90;89.30;;;;;;5077799;28;20056;-60
2022/03/17 06:47:39;;;;;;;32.03;14.35;;;11.00;89.10;;;;;;5081050;28;20379;-60
2022/03/17 06:50:06;;;;;;;36.08;16.05;;;10.90;89.10;;;;;;5082569;28;20826;-60
2022/03/17 06:52:32;;;;;;;33.40;15.48;;;10.90;89.10;;;;;;5079842;28;20024;-60
2022/03/17 06:54:58;;;;;;;33.13;15.98;;;10.90;89.20;;;;;;5078244;28;20150;-61
2022/03/17 06:57:23;;;;;;;36.22;15.20;;;11.00;89.20;;;;;;5079391;28;20036;-61
2022/03/17 06:59:50;;;;;;;36.10;16.40;;;10.90;89.10;;;;;;5080857;28;20107;-61
2022/03/17 07:02:17;;;;;;;47.83;17.05;;;11.00;89.20;;;;;;5062279;28;20024;-62
2022/03/17 07:04:44;;;;;;;41.20;14.95;;;10.90;89.10;;;;;;5079198;28;20020;-61
2022/03/17 07:07:10;;;;;;;33.72;15.60;;;11.00;89.20;;;;;;5077826;28;20298;-60
2022/03/17 07:09:37;;;;;;;32.72;16.08;;;11.00;90.00;;;;;;5078290;28;20024;-61
2022/03/17 07:12:03;;;;;;;43.25;17.48;;;10.90;89.10;;;;;;5079436;28;20380;-60
2022/03/17 07:14:29;;;;;;;35.28;15.13;;;10.90;89.10;;;;;;5081121;28;20029;-60
2022/03/17 07:16:54;;;;;;;32.80;14.68;;;11.00;89.20;;;;;;5080293;28;20530;-60
2022/03/17 07:19:20;;;;;;;36.28;15.07;;;11.00;89.10;;;;;;5077377;28;20535;-60
2022/03/17 07:21:46;;;;;;;39.13;14.95;;;11.00;89.20;;;;;;5080409;28;20028;-60
2022/03/17 07:24:11;;;;;;;38.28;16.02;;;11.00;89.20;;;;;;5082187;28;20469;-60
2022/03/17 07:26:39;;;;;;;33.47;15.95;;;11.00;89.10;;;;;;5077572;28;20528;-61
2022/03/17 07:29:05;;;;;;;33.38;15.15;;;11.00;89.20;;;;;;5078486;28;20491;-60
2022/03/17 07:31:31;;;;;;;39.22;15.73;;;11.00;89.20;;;;;;5076075;28;20562;-60
2022/03/17 07:33:56;;;;;;;36.50;16.23;;;11.00;89.20;;;;;;5084393;28;20478;-61
2022/03/17 07:36:22;;;;;;;36.97;15.55;;;11.00;89.10;;;;;;5076770;28;20012;-60
2022/03/17 07:38:48;;;;;;;34.58;15.45;;;11.00;89.20;;;;;;5087913;28;20058;-61
2022/03/17 07:41:14;;;;;;;35.42;16.48;;;11.00;89.10;;;;;;5087381;28;20035;-60
2022/03/17 07:43:43;;;;;;;42.50;16.05;;;11.00;89.10;;;;;;5080990;28;20047;-60
2022/03/17 07:46:10;;;;;;;41.70;17.67;;;11.00;89.10;;;;;;5084246;28;20112;-60
2022/03/17 07:48:35;;;;;;;33.78;14.73;;;11.00;89.20;;;;;;5083721;28;20036;-60
2022/03/17 07:51:02;;;;;;;34.97;15.30;;;11.00;89.10;;;;;;5061612;28;20032;-60
2022/03/17 07:53:27;;;;;;;38.33;13.45;;;11.00;89.00;;;;;;5077027;28;20162;-60
2022/03/17 07:55:55;;;;;;;33.72;15.60;;;11.00;89.10;;;;;;5077742;28;20115;-60
2022/03/17 07:58:24;;;;;;;29.88;14.80;;;11.00;89.10;;;;;;5080323;28;20027;-60
2022/03/17 08:00:54;;;;;;;38.97;16.92;;;11.00;89.20;;;;;;5089039;28;20024;-60
2022/03/17 08:03:20;;;;;;;34.50;15.70;;;11.00;89.10;;;;;;5081226;28;20036;-60
2022/03/17 08:05:47;;;;;;;38.33;16.25;;;11.00;89.00;;;;;;5079258;28;20480;-60
2022/03/17 08:08:16;;;;;;;39.63;17.02;;;11.00;89.00;;;;;;5077654;28;20062;-60
2022/03/17 08:10:42;;;;;;;31.02;15.15;;;11.00;89.00;;;;;;5079643;28;20033;-60
2022/03/17 08:13:09;;;;;;;37.60;14.25;;;11.00;89.10;;;;;;5084287;28;20034;-60
2022/03/17 08:15:40;;;;;;;35.58;14.93;;;11.00;89.00;;;;;;5086815;28;20020;-60
2022/03/17 08:18:06;;;;;;;32.22;14.23;;;11.10;89.10;;;;;;5087688;28;20082;-60
2022/03/17 08:20:35;;;;;;;30.27;13.38;;;11.00;89.00;;;;;;5092280;28;20317;-60
2022/03/17 08:23:01;;;;;;;34.05;14.00;;;11.00;89.00;;;;;;5081070;28;20555;-60
2022/03/17 08:25:27;;;;;;;32.75;15.18;;;11.00;89.00;;;;;;5080609;28;20056;-61
2022/03/17 08:27:54;;;;;;;30.38;14.18;;;11.10;89.00;;;;;;5082990;28;20060;-60
2022/03/17 08:30:20;;;;;;;30.75;14.18;;;11.00;89.00;;;;;;5070476;28;20144;-60
2022/03/17 08:32:46;;;;;;;34.65;15.25;;;11.00;88.90;;;;;;5081784;28;20032;-60
2022/03/17 08:35:13;;;;;;;27.02;11.20;;;11.10;89.00;;;;;;5084567;28;20048;-60
2022/03/17 08:37:43;;;;;;;35.92;15.07;;;11.10;89.10;;;;;;5085301;28;20035;-60
2022/03/17 08:40:10;;;;;;;25.90;11.00;;;11.00;88.90;;;;;;5080195;28;20054;-60
2022/03/17 08:42:36;;;;;;;36.05;16.58;;;11.10;89.00;;;;;;5083284;28;20064;-60
2022/03/17 08:49:18;;;;;;;33.55;15.52;;;11.10;89.00;;;;;;5079848;28;20028;-60
2022/03/17 08:50:32;;;;;;;34.13;13.98;;;11.00;89.00;;;;;;5092631;28;20055;-60
2022/03/17 08:52:58;;;;;;;30.75;14.52;;;11.10;89.00;;;;;;5092275;28;20027;-60
2022/03/17 08:55:24;;;;;;;29.75;14.20;;;11.10;88.90;;;;;;5092252;28;20024;-60
2022/03/17 08:57:49;;;;;;;39.83;16.67;;;11.10;89.00;;;;;;5091831;28;20397;-60
2022/03/17 09:00:15;;;;;;;37.70;16.40;;;11.10;89.00;;;;;;5092537;28;20032;-60
2022/03/17 09:02:44;;;;;;;32.33;15.32;;;11.10;89.00;;;;;;5091944;28;20077;-60
2022/03/17 09:05:10;;;;;;;39.50;15.93;;;11.10;88.80;;;;;;5091899;28;20032;-60
2022/03/17 09:07:36;;;;;;;31.85;13.82;;;11.10;88.80;;;;;;5092541;28;20070;-60
2022/03/17 09:10:04;;;;;;;36.65;15.88;;;11.10;88.80;;;;;;5091661;28;20574;-60
2022/03/17 09:12:30;;;;;;;35.70;16.40;;;11.10;88.80;;;;;;5072967;28;20032;-60
2022/03/17 09:14:56;;;;;;;29.95;14.55;;;11.10;88.80;;;;;;5087227;28;20028;-60
2022/03/17 09:17:22;;;;;;;29.83;15.55;;;11.10;88.70;;;;;;5076005;28;20023;-60
2022/03/17 09:19:47;;;;;;;35.63;15.23;;;11.10;88.70;;;;;;5081716;28;20033;-60
2022/03/17 09:22:13;;;;;;;39.17;16.70;;;11.10;88.70;;;;;;5073901;28;20039;-60
2022/03/17 09:24:39;;;;;;;34.92;14.32;;;11.20;88.80;;;;;;5079246;28;20488;-60
2022/03/17 09:27:05;;;;;;;35.38;14.88;;;11.20;88.70;;;;;;5079647;28;20027;-60
2022/03/17 09:29:31;;;;;;;33.13;16.52;;;11.20;88.60;;;;;;5083241;28;20035;-60
2022/03/17 09:32:00;;;;;;;37.55;15.85;;;11.10;88.60;;;;;;5091269;28;20036;-60
2022/03/17 09:34:27;;;;;;;37.53;16.73;;;11.20;88.70;;;;;;5086643;28;20035;-60
2022/03/17 09:36:52;;;;;;;29.77;14.77;;;11.20;89.40;;;;;;5071579;28;20042;-60
2022/03/17 09:42:03;;;;;;;41.40;17.50;;;11.20;88.70;;;;;;5075209;28;20435;-60
2022/03/17 09:44:28;;;;;;;36.40;13.77;;;11.20;88.60;;;;;;5071274;28;20028;-60
2022/03/17 09:46:56;;;;;;;36.42;15.32;;;11.20;89.40;;;;;;5071504;28;20047;-60
2022/03/17 09:49:24;;;;;;;41.75;17.77;;;11.20;89.30;;;;;;5088987;28;20492;-60
2022/03/17 09:51:50;;;;;;;44.42;16.58;;;11.20;88.50;;;;;;5090691;28;20553;-60
2022/03/17 09:54:16;;;;;;;34.45;14.63;;;11.20;88.40;;;;;;5091661;28;20020;-61
2022/03/17 09:56:41;;;;;;;37.35;17.65;;;11.20;88.30;;;;;;5091994;28;20103;-60
2022/03/17 09:59:07;;;;;;;41.75;17.65;;;11.20;88.50;;;;;;5073123;28;20057;-60
2022/03/17 10:01:34;;;;;;;37.97;17.58;;;11.20;88.50;;;;;;5089644;28;20042;-60
2022/03/17 10:04:01;;;;;;;40.58;17.15;;;11.20;88.30;;;;;;5071688;28;20057;-60
2022/03/17 10:06:31;;;;;;;34.13;16.52;;;11.20;88.30;;;;;;5072785;28;20016;-61
2022/03/17 10:08:57;;;;;;;39.65;18.45;;;11.20;88.40;;;;;;5090697;28;20024;-62
2022/03/17 10:11:30;;;;;;;37.50;17.25;;;11.20;88.50;;;;;;5090243;28;20091;-62
2022/03/17 10:13:57;;;;;;;36.67;17.38;;;11.30;88.60;;;;;;5090666;28;20062;-62
2022/03/17 10:16:24;;;;;;;41.15;17.15;;;11.20;88.70;;;;;;5090576;28;20028;-62
2022/03/17 10:19:07;;;;;;;45.20;18.30;;;11.30;89.10;;;;;;5089261;28;20028;-61
2022/03/17 10:21:33;;;;;;;39.80;18.45;;;11.20;88.50;;;;;;5090681;28;20035;-60
2022/03/17 10:24:02;;;;;;;45.95;16.83;;;11.30;88.60;;;;;;5089999;28;20090;-60
2022/03/17 10:26:50;;;;;;;35.80;15.93;;;11.30;88.50;;;;;;5090890;28;20028;-60
2022/03/17 10:29:25;;;;;;;38.28;15.95;;;11.30;88.50;;;;;;5090409;28;20276;-61
2022/03/17 10:32:02;;;;;;;39.67;16.55;;;11.30;89.20;;;;;;5090368;28;20081;-60
2022/03/17 10:34:30;;;;;;;41.17;16.83;;;11.30;88.50;;;;;;5088866;28;20035;-60
2022/03/17 10:37:15;;;;;;;41.08;16.83;;;11.30;88.70;;;;;;5088261;28;20016;-60
2022/03/17 10:39:46;;;;;;;41.08;17.70;;;11.30;88.80;;;;;;5089551;28;20515;-60
2022/03/17 10:42:27;;;;;;;41.17;17.08;;;11.30;88.70;;;;;;5089782;28;20020;-61
2022/03/17 10:44:54;;;;;;;37.33;16.98;;;11.30;88.50;;;;;;5090556;28;20036;-60
2022/03/17 10:47:35;;;;;;;46.28;15.38;;;11.30;88.50;;;;;;5089546;28;20508;-61
2022/03/17 10:50:01;;;;;;;39.05;17.02;;;11.30;88.70;;;;;;5089419;28;20032;-61
2022/03/17 10:52:57;;;;;;;43.33;18.80;;;11.30;88.70;;;;;;5089307;28;20511;-60
2022/03/17 10:55:31;;;;;;;49.10;17.95;;;11.30;88.70;;;;;;5088702;28;20370;-61
2022/03/17 10:58:13;;;;;;;36.30;17.67;;;11.30;88.60;;;;;;5090071;28;20091;-60
2022/03/17 11:00:50;;;;;;;36.83;17.05;;;11.30;88.60;;;;;;5089490;28;20032;-60
2022/03/17 11:03:17;;;;;;;39.72;17.02;;;11.30;89.00;;;;;;5089638;28;20028;-62
2022/03/17 11:05:43;;;;;;;41.22;17.40;;;11.30;88.60;;;;;;5089074;28;20027;-60
2022/03/17 11:08:10;;;;;;;40.17;17.65;;;11.30;88.50;;;;;;5089757;28;20024;-60
2022/03/17 11:10:39;;;;;;;39.90;18.55;;;11.30;89.10;;;;;;5090123;28;20085;-60
2022/03/17 11:13:11;;;;;;;58.70;16.90;;;11.30;88.80;;;;;;5089316;28;20131;-60
2022/03/17 11:15:38;;;;;;;;;;;11.40;88.80;;;;;;5089930;28;20103;-60
2022/03/17 11:18:18;;;;;;;36.17;16.40;;;11.40;88.90;;;;;;5071613;28;20246;-60
2022/03/17 11:20:45;;;;;;;35.65;16.02;;;11.40;88.80;;;;;;5088914;28;20040;-60
2022/03/17 11:23:19;;;;;;;44.13;17.27;;;11.30;89.10;;;;;;5089281;28;20028;-60
2022/03/17 11:29:18;;;;;;;31.55;14.57;;;11.40;89.00;;;;;;4990000;28;20130;-60
2022/03/17 11:32:08;;;;;;;42.10;17.85;;;11.40;88.90;;;;;;4986883;28;20042;-61
2022/03/17 11:34:38;;;;;;;38.03;18.15;;;11.40;89.10;;;;;;4986498;28;20042;-60
2022/03/17 11:37:16;;;;;;;;;;;11.40;88.90;;;;;;4987739;28;20620;-60
2022/03/17 11:39:53;;;;;;;41.30;16.23;;;11.40;88.90;;;;;;4987427;28;20646;-60
2022/03/17 11:42:29;;;;;;;40.22;15.10;;;11.40;88.90;;;;;;4986453;28;20042;-61
2022/03/17 11:45:16;;;;;;;30.60;12.90;;;11.40;88.90;;;;;;4985013;28;20114;-61
2022/03/17 11:47:55;;;;;;;39.20;16.52;;;11.40;89.30;;;;;;4987345;28;20415;-60
2022/03/17 11:50:25;;;;;;;21.52;10.85;;;11.40;89.30;;;;;;4966858;28;20468;-60
2022/03/17 11:53:02;;;;;;;38.15;17.95;;;11.40;89.00;;;;;;4967010;28;20042;-60
2022/03/17 11:55:42;;;;;;;39.15;17.33;;;11.40;89.00;;;;;;4968102;28;20030;-60
2022/03/17 11:58:33;;;;;;;37.95;16.98;;;11.40;89.30;;;;;;4967659;28;20045;-60
2022/03/17 12:01:13;;;;;;;34.47;17.35;;;11.40;89.00;;;;;;4967547;28;20038;-61
2022/03/17 12:03:42;;;;;;;42.53;17.33;;;11.40;88.80;;;;;;4967535;28;20031;-60
2022/03/17 12:06:19;;;;;;;43.35;16.80;;;11.40;88.90;;;;;;5046207;28;20033;-60
2022/03/17 12:09:02;;;;;;;42.22;17.75;;;11.40;89.00;;;;;;5069400;28;20048;-60
2022/03/17 12:11:36;;;;;;;42.15;16.63;;;11.50;89.20;;;;;;5068203;28;20036;-61
2022/03/17 12:14:34;;;;;;;39.25;18.05;;;11.50;89.20;;;;;;5069050;28;20029;-60
2022/03/17 12:17:17;;;;;;;45.38;18.17;;;11.50;90.00;;;;;;5068162;28;20082;-60
2022/03/17 12:19:49;;;;;;;38.05;17.95;;;11.50;89.70;;;;;;5065922;28;20508;-61
2022/03/17 12:22:35;;;;;;;37.47;17.77;;;11.50;89.00;;;;;;5068382;28;20024;-60
2022/03/17 12:25:11;;;;;;;46.97;18.52;;;11.40;89.70;;;;;;5068898;28;20020;-60
2022/03/17 12:27:38;;;;;;;38.25;16.33;;;11.50;89.10;;;;;;5069154;28;20329;-60
2022/03/17 12:30:12;;;;;;;39.90;18.23;;;11.50;89.00;;;;;;5068517;28;20021;-61
2022/03/17 12:32:40;;;;;;;45.17;18.55;;;11.50;89.20;;;;;;5068371;28;20043;-60
2022/03/17 12:35:12;;;;;;;40.65;17.90;;;11.50;89.00;;;;;;5067786;28;20032;-60
2022/03/17 12:37:39;;;;;;;40.70;17.70;;;11.50;90.00;;;;;;5068794;28;20024;-60
2022/03/17 12:40:12;;;;;;;35.80;15.60;;;11.50;89.20;;;;;;5068350;28;20139;-60
2022/03/17 12:42:40;;;;;;;42.60;17.63;;;11.50;89.20;;;;;;5068106;28;20354;-60
2022/03/17 12:45:13;;;;;;;38.22;18.17;;;11.50;89.10;;;;;;5068651;28;20603;-60
2022/03/17 12:47:41;;;;;;;36.60;16.92;;;11.50;89.40;;;;;;5065384;28;20048;-60
2022/03/17 12:52:51;;;;;;;40.17;18.60;;;11.50;89.50;;;;;;5068733;22;20486;-64
2022/03/17 12:55:21;;;;;;;39.25;18.17;;;11.50;88.90;;;;;;5048456;28;20078;-64
2022/03/17 12:57:47;;;;;;;39.83;17.87;;;11.50;89.30;;;;;;5050093;28;20565;-64
2022/03/17 13:00:15;;;;;;;45.20;18.98;;;11.50;89.30;;;;;;5052129;28;20060;-63